Time;durP1;ratioP1;P1;durP2;ratioP2;P2;SDS_P1;SDS_P2;PMS_P1;PMS_P2;Temp;Humidity;BMP_temperature;BMP_pressure;BME280_temperature;BME280_humidity;BME280_pressure;Samples;Min_cycle;Max_cycle;Signal;HPM_P1;HPM_P2
2022/09/08 00:00:42;;;;;;;4.90;2.03;;;19.90;99.90;;;;;;5024188;28;20018;-40
2022/09/08 00:03:14;;;;;;;3.60;1.70;;;19.90;99.90;;;;;;5029235;28;20353;-40
2022/09/08 00:06:03;;;;;;;6.13;1.98;;;19.80;99.90;;;;;;5028963;28;20445;-32
2022/09/08 00:08:30;;;;;;;8.20;1.60;;;19.80;99.90;;;;;;5039779;28;20051;-30
2022/09/08 00:10:58;;;;;;;6.37;2.53;;;19.80;99.90;;;;;;5035045;28;20087;-38
2022/09/08 00:13:25;;;;;;;7.97;1.75;;;19.80;99.90;;;;;;5035724;28;20021;-38
2022/09/08 00:15:52;;;;;;;2.03;1.73;;;19.80;99.90;;;;;;5030836;28;20038;-36
2022/09/08 00:18:18;;;;;;;4.45;2.10;;;19.80;99.90;;;;;;5035388;28;20491;-34
2022/09/08 00:20:44;;;;;;;5.80;2.40;;;19.70;99.90;;;;;;5033414;28;20496;-32
2022/09/08 00:23:09;;;;;;;4.10;1.70;;;19.70;99.90;;;;;;5033291;28;20028;-35
2022/09/08 00:25:35;;;;;;;6.28;2.40;;;19.70;99.90;;;;;;5038284;28;20026;-35
2022/09/08 00:28:01;;;;;;;6.32;2.45;;;19.60;99.90;;;;;;5038551;28;20053;-36
2022/09/08 00:30:26;;;;;;;6.55;1.90;;;19.60;99.90;;;;;;5030606;28;20079;-35
2022/09/08 00:32:52;;;;;;;6.05;2.35;;;19.60;99.90;;;;;;5026064;28;20036;-37
2022/09/08 00:35:18;;;;;;;4.55;2.00;;;19.60;99.90;;;;;;5023986;28;20030;-33
2022/09/08 00:37:48;;;;;;;4.90;2.10;;;19.60;99.90;;;;;;5028338;28;20037;-37
2022/09/08 00:40:15;;;;;;;3.58;1.90;;;19.60;99.90;;;;;;5027565;28;20083;-37
2022/09/08 00:42:41;;;;;;;5.40;2.13;;;19.60;99.90;;;;;;5033583;28;20106;-36
2022/09/08 00:45:09;;;;;;;4.65;2.25;;;19.60;99.90;;;;;;5025620;28;20025;-36
2022/09/08 00:47:54;;;;;;;4.10;1.90;;;19.60;99.90;;;;;;5026799;28;20052;-47
2022/09/08 00:50:24;;;;;;;7.07;2.08;;;19.60;99.90;;;;;;5031168;28;20025;-37
2022/09/08 00:53:00;;;;;;;3.20;2.00;;;19.60;99.90;;;;;;5055924;28;20521;-37
2022/09/08 00:55:36;;;;;;;5.07;2.42;;;19.70;99.90;;;;;;5028916;28;20385;-31
2022/09/08 00:58:02;;;;;;;6.43;2.45;;;19.70;99.90;;;;;;5033237;28;20499;-35
2022/09/08 01:00:28;;;;;;;9.27;2.45;;;19.80;99.90;;;;;;5039128;28;20033;-32
2022/09/08 01:02:54;;;;;;;3.55;1.92;;;19.90;99.90;;;;;;5036322;28;20469;-40
2022/09/08 01:05:27;;;;;;;4.95;2.05;;;19.90;99.90;;;;;;5033092;28;20149;-34
2022/09/08 01:14:11;;;;;;;4.40;2.67;;;19.90;99.90;;;;;;5034248;28;20047;-35
2022/09/08 01:16:42;;;;;;;4.80;2.42;;;20.00;99.90;;;;;;5036421;28;20025;-38
2022/09/08 01:19:28;;;;;;;4.00;2.13;;;20.00;99.90;;;;;;5040976;28;20029;-33
2022/09/08 01:22:12;;;;;;;11.70;2.78;;;20.00;99.90;;;;;;5023834;28;20508;-44
2022/09/08 01:25:11;;;;;;;4.95;3.00;;;19.80;99.90;;;;;;5026175;28;20071;-34
2022/09/08 01:27:39;;;;;;;4.82;2.63;;;19.40;99.90;;;;;;5030278;28;20406;-34
2022/09/08 01:30:08;;;;;;;5.07;2.17;;;19.10;99.90;;;;;;5026571;28;20025;-38
2022/09/08 01:32:38;;;;;;;5.97;2.53;;;18.90;99.90;;;;;;5033051;28;20496;-39
2022/09/08 01:35:06;;;;;;;9.43;2.70;;;18.80;99.90;;;;;;5023077;28;20050;-39
2022/09/08 01:37:31;;;;;;;9.73;3.70;;;18.60;99.90;;;;;;5024390;28;20488;-42
2022/09/08 01:39:57;;;;;;;8.82;2.60;;;18.50;99.90;;;;;;5024746;28;20053;-37
2022/09/08 01:42:24;;;;;;;6.60;2.42;;;18.40;99.90;;;;;;5031779;28;20041;-38
2022/09/08 01:44:49;;;;;;;5.82;2.40;;;18.40;99.90;;;;;;5030644;28;20435;-34
2022/09/08 01:47:15;;;;;;;5.22;2.45;;;18.30;99.90;;;;;;5038690;28;20048;-39
2022/09/08 01:49:40;;;;;;;6.50;3.13;;;18.30;99.90;;;;;;5033931;28;20041;-36
2022/09/08 01:52:07;;;;;;;3.78;2.38;;;18.20;99.90;;;;;;5023262;28;20415;-37
2022/09/08 01:54:32;;;;;;;6.68;2.40;;;18.20;99.90;;;;;;5031507;28;20669;-34
2022/09/08 01:56:58;;;;;;;10.65;2.80;;;18.10;99.90;;;;;;5033263;28;20056;-38
2022/09/08 01:59:24;;;;;;;8.60;2.97;;;18.10;99.90;;;;;;5033779;28;20463;-41
2022/09/08 02:01:50;;;;;;;10.27;2.53;;;18.10;99.90;;;;;;5033920;28;20052;-38
2022/09/08 02:04:16;;;;;;;7.72;2.65;;;18.20;99.90;;;;;;5030563;28;20092;-37
2022/09/08 02:06:42;;;;;;;9.43;2.70;;;18.20;99.90;;;;;;5032797;28;20448;-52
2022/09/08 02:09:08;;;;;;;11.13;3.05;;;18.20;99.90;;;;;;5026854;28;20488;-39
2022/09/08 02:11:33;;;;;;;9.20;3.22;;;18.10;99.90;;;;;;5032863;28;20064;-39
2022/09/08 02:13:59;;;;;;;11.93;3.03;;;18.10;99.90;;;;;;5032298;28;20029;-38
2022/09/08 02:16:25;;;;;;;9.60;2.72;;;18.00;99.90;;;;;;5037339;28;20550;-43
2022/09/08 02:18:54;;;;;;;5.43;3.22;;;18.00;99.90;;;;;;5035738;28;20034;-35
2022/09/08 02:21:21;;;;;;;7.35;2.90;;;17.90;99.90;;;;;;5032873;28;20045;-53
2022/09/08 02:23:48;;;;;;;6.72;3.75;;;17.90;99.90;;;;;;5033304;28;20013;-36
2022/09/08 02:26:18;;;;;;;;;;;17.80;99.90;;;;;;5037254;28;20497;-38
2022/09/08 02:28:45;;;;;;;8.32;4.40;;;17.90;99.90;;;;;;5035979;28;20375;-37
2022/09/08 02:31:11;;;;;;;9.15;5.43;;;17.90;99.90;;;;;;5040484;28;20082;-39
2022/09/08 02:33:37;;;;;;;7.88;4.97;;;17.90;99.90;;;;;;5032666;28;20076;-38
2022/09/08 02:36:04;;;;;;;10.85;5.32;;;17.90;99.90;;;;;;5034991;28;20087;-35
2022/09/08 02:38:29;;;;;;;11.43;5.47;;;17.90;99.90;;;;;;5038227;28;20028;-39
2022/09/08 02:40:56;;;;;;;9.20;5.40;;;17.90;99.90;;;;;;5037422;28;20473;-38
2022/09/08 02:43:22;;;;;;;8.10;5.07;;;17.90;99.90;;;;;;5028364;28;20541;-37
2022/09/08 02:45:48;;;;;;;11.70;5.57;;;17.90;99.90;;;;;;5035877;28;20120;-36
2022/09/08 02:48:14;;;;;;;10.15;5.75;;;17.90;99.90;;;;;;5030764;28;20032;-38
2022/09/08 02:50:41;;;;;;;11.32;5.95;;;17.90;99.90;;;;;;5042249;28;20025;-39
2022/09/08 02:53:07;;;;;;;14.45;5.00;;;17.80;99.90;;;;;;5037628;28;20028;-37
2022/09/08 02:55:39;;;;;;;8.13;5.05;;;17.80;99.90;;;;;;5037577;28;20021;-38
2022/09/08 02:58:07;;;;;;;11.45;5.43;;;17.80;99.90;;;;;;5037689;28;20374;-36
2022/09/08 03:00:34;;;;;;;11.13;6.10;;;17.80;99.90;;;;;;5038750;28;20382;-32
2022/09/08 03:03:00;;;;;;;9.68;6.30;;;17.90;99.90;;;;;;5040901;28;20469;-30
2022/09/08 03:05:25;;;;;;;10.77;5.15;;;17.90;99.90;;;;;;5034134;28;20104;-38
2022/09/08 03:07:52;;;;;;;9.07;5.40;;;17.90;99.90;;;;;;5037326;28;20025;-35
2022/09/08 03:10:23;;;;;;;10.80;5.90;;;17.90;99.90;;;;;;5034832;28;20033;-37
2022/09/08 03:12:53;;;;;;;11.40;5.30;;;18.00;99.90;;;;;;5030890;28;20037;-38
2022/09/08 03:15:20;;;;;;;10.32;5.10;;;18.00;99.90;;;;;;5031438;28;20028;-32
2022/09/08 03:17:46;;;;;;;10.07;5.15;;;18.00;99.90;;;;;;5033730;28;20477;-35
2022/09/08 03:20:14;;;;;;;16.65;5.10;;;17.90;99.90;;;;;;5039232;28;20024;-31
2022/09/08 03:22:40;;;;;;;12.57;6.25;;;17.90;99.90;;;;;;5032062;28;20060;-34
2022/09/08 03:25:06;;;;;;;7.88;5.20;;;17.90;99.90;;;;;;5033171;28;20053;-30
2022/09/08 03:27:32;;;;;;;9.25;4.72;;;17.90;99.90;;;;;;5035013;28;20033;-35
2022/09/08 03:29:57;;;;;;;5.38;4.53;;;17.90;99.90;;;;;;5031728;28;20029;-36
2022/09/08 03:32:23;;;;;;;9.43;5.53;;;17.80;99.90;;;;;;5032060;28;20112;-37
2022/09/08 03:34:48;;;;;;;7.05;4.88;;;17.70;99.90;;;;;;5029286;28;20511;-37
2022/09/08 03:37:14;;;;;;;10.73;5.15;;;17.60;99.90;;;;;;5037903;28;20072;-37
2022/09/08 03:39:40;;;;;;;9.88;4.70;;;17.60;99.90;;;;;;5033345;28;20213;-31
2022/09/08 03:42:05;;;;;;;9.68;5.43;;;17.50;99.90;;;;;;5035901;28;20592;-32
2022/09/08 03:44:32;;;;;;;10.43;4.90;;;17.50;99.90;;;;;;5028847;28;20033;-37
2022/09/08 03:46:58;;;;;;;8.20;4.35;;;17.50;99.90;;;;;;5035694;28;20032;-36
2022/09/08 03:49:24;;;;;;;13.02;5.38;;;17.50;99.90;;;;;;5047399;28;20029;-35
2022/09/08 03:51:49;;;;;;;14.98;5.35;;;17.40;99.90;;;;;;5034534;28;20029;-41
2022/09/08 03:56:59;;;;;;;11.95;5.10;;;17.50;99.90;;;;;;5035853;28;20763;-42
2022/09/08 03:59:25;;;;;;;13.25;5.82;;;17.50;99.90;;;;;;5033298;28;20025;-34
2022/09/08 04:01:51;;;;;;;15.00;4.85;;;17.50;99.90;;;;;;5027082;28;20405;-38
2022/09/08 04:04:17;;;;;;;10.13;4.55;;;17.50;99.90;;;;;;5031690;28;20466;-41
2022/09/08 04:06:43;;;;;;;14.32;5.32;;;17.60;99.90;;;;;;5037127;28;20036;-42
2022/09/08 04:09:10;;;;;;;10.30;3.67;;;17.60;99.90;;;;;;5032454;28;20498;-52
2022/09/08 04:11:36;;;;;;;6.35;3.95;;;17.60;99.90;;;;;;5030891;28;20051;-44
2022/09/08 04:14:02;;;;;;;8.20;3.42;;;17.60;99.90;;;;;;5034437;28;20723;-42
2022/09/08 04:16:28;;;;;;;9.18;3.65;;;17.50;99.90;;;;;;5035483;28;20037;-39
2022/09/08 04:18:53;;;;;;;10.70;3.83;;;17.50;99.90;;;;;;5026885;28;20033;-41
2022/09/08 04:21:19;;;;;;;4.63;3.10;;;17.40;99.90;;;;;;5035385;28;20029;-39
2022/09/08 04:23:45;;;;;;;6.15;3.05;;;17.30;99.90;;;;;;5034592;28;20034;-40
2022/09/08 04:26:13;;;;;;;7.20;2.80;;;17.30;99.90;;;;;;5031994;28;20267;-34
2022/09/08 04:28:39;;;;;;;4.05;2.72;;;17.20;99.90;;;;;;5031943;28;20108;-42
2022/09/08 04:31:14;;;;;;;3.67;2.88;;;17.20;99.90;;;;;;5037393;28;20034;-37
2022/09/08 04:33:40;;;;;;;7.10;2.85;;;17.10;99.90;;;;;;5025150;28;20104;-40
2022/09/08 04:36:12;;;;;;;6.38;3.38;;;17.10;99.90;;;;;;5037731;28;20116;-35
2022/09/08 04:38:38;;;;;;;9.25;2.88;;;17.10;99.90;;;;;;5026976;28;20024;-41
2022/09/08 04:41:12;;;;;;;8.23;3.08;;;17.00;99.90;;;;;;5030771;28;20021;-41
2022/09/08 04:43:38;;;;;;;8.13;2.88;;;17.00;99.90;;;;;;5029050;28;20381;-38
2022/09/08 04:46:07;;;;;;;5.65;3.10;;;17.00;99.90;;;;;;5034186;28;20435;-38
2022/09/08 04:48:35;;;;;;;4.50;2.95;;;17.00;99.90;;;;;;5031349;28;20057;-35
2022/09/08 04:51:01;;;;;;;7.13;2.85;;;17.00;99.90;;;;;;5033956;28;20512;-43
2022/09/08 04:53:29;;;;;;;12.73;2.83;;;16.90;99.90;;;;;;5050391;28;20040;-41
2022/09/08 04:55:55;;;;;;;7.03;2.88;;;16.90;99.90;;;;;;5038638;28;20027;-38
2022/09/08 04:58:21;;;;;;;7.65;2.95;;;16.90;99.90;;;;;;5027820;28;20026;-44
2022/09/08 05:00:47;;;;;;;4.75;2.72;;;16.90;99.90;;;;;;5035385;28;20033;-46
2022/09/08 05:03:13;;;;;;;9.18;3.33;;;16.90;99.90;;;;;;5027981;28;20495;-44
2022/09/08 05:05:39;;;;;;;10.35;3.22;;;16.90;99.90;;;;;;5021210;28;20025;-40
2022/09/08 05:08:05;;;;;;;6.63;3.40;;;16.90;99.90;;;;;;5024151;28;20483;-42
2022/09/08 05:10:34;;;;;;;3.65;2.67;;;16.90;99.90;;;;;;5029564;28;20145;-42
2022/09/08 05:13:00;;;;;;;8.18;3.83;;;16.90;99.90;;;;;;5022629;28;20025;-44
2022/09/08 05:15:26;;;;;;;9.43;3.60;;;16.90;99.90;;;;;;5030181;28;20036;-42
2022/09/08 05:17:54;;;;;;;10.48;3.95;;;16.90;99.90;;;;;;5028818;28;20041;-41
2022/09/08 05:20:20;;;;;;;8.00;3.35;;;16.90;99.90;;;;;;5025996;28;20072;-41
2022/09/08 05:22:46;;;;;;;15.45;3.88;;;16.80;99.90;;;;;;5029907;28;20021;-43
2022/09/08 05:25:12;;;;;;;7.65;3.55;;;16.90;99.90;;;;;;5033700;28;20481;-43
2022/09/08 05:27:37;;;;;;;7.40;3.50;;;16.90;99.90;;;;;;5028089;28;20405;-40
2022/09/08 05:30:04;;;;;;;9.65;3.42;;;16.90;99.90;;;;;;5029061;28;20022;-44
2022/09/08 05:32:29;;;;;;;5.20;3.22;;;16.90;99.90;;;;;;5021954;28;20482;-41
2022/09/08 05:34:55;;;;;;;10.55;3.97;;;16.90;99.90;;;;;;5030495;28;20021;-40
2022/09/08 05:37:21;;;;;;;10.88;4.72;;;16.90;99.90;;;;;;5026621;28;20050;-43
2022/09/08 05:39:46;;;;;;;6.10;3.58;;;16.90;99.90;;;;;;5028679;28;20101;-45
2022/09/08 05:42:12;;;;;;;14.30;4.07;;;16.90;99.90;;;;;;5025364;28;20021;-44
2022/09/08 05:44:38;;;;;;;12.13;4.13;;;16.90;99.90;;;;;;5022207;28;20404;-45
2022/09/08 05:47:04;;;;;;;6.20;3.63;;;16.90;99.90;;;;;;5025910;28;20022;-44
2022/09/08 05:49:31;;;;;;;8.30;3.92;;;16.90;99.90;;;;;;5034714;28;20036;-48
2022/09/08 05:52:00;;;;;;;6.60;3.72;;;16.90;99.90;;;;;;5025039;28;20524;-43
2022/09/08 05:54:26;;;;;;;10.60;4.68;;;16.90;99.90;;;;;;5030856;28;20491;-42
2022/09/08 05:56:51;;;;;;;10.00;4.57;;;16.90;99.90;;;;;;5031398;28;20105;-47
2022/09/08 05:59:17;;;;;;;5.75;4.05;;;16.90;99.90;;;;;;5029785;28;20106;-46
2022/09/08 06:01:43;;;;;;;6.50;4.32;;;16.90;99.90;;;;;;5032819;28;20442;-40
2022/09/08 06:04:09;;;;;;;13.70;4.72;;;17.00;99.90;;;;;;5025924;28;20030;-43
2022/09/08 06:06:35;;;;;;;6.22;4.30;;;17.00;99.90;;;;;;5028230;28;20029;-43
2022/09/08 06:09:02;;;;;;;8.40;3.80;;;16.90;99.90;;;;;;5031315;28;20480;-57
2022/09/08 06:11:30;;;;;;;13.43;4.40;;;16.90;99.90;;;;;;5032764;28;20559;-44
2022/09/08 06:13:56;;;;;;;12.77;4.85;;;16.90;99.90;;;;;;5028818;28;20021;-54
2022/09/08 06:16:22;;;;;;;10.80;4.32;;;17.00;99.90;;;;;;5028239;28;20052;-42
2022/09/08 06:18:48;;;;;;;6.93;4.07;;;16.90;99.90;;;;;;5015987;28;20026;-45
2022/09/08 06:21:23;;;;;;;11.30;5.07;;;17.00;99.90;;;;;;5023229;28;20112;-47
2022/09/08 06:23:55;;;;;;;10.63;4.13;;;17.00;99.90;;;;;;5024328;28;20469;-42
2022/09/08 06:26:32;;;;;;;10.57;5.05;;;16.90;99.90;;;;;;5030167;28;20034;-43
2022/09/08 06:29:16;;;;;;;16.05;4.53;;;17.00;99.90;;;;;;5035442;28;20033;-44
2022/09/08 06:31:48;;;;;;;13.40;5.20;;;17.00;99.90;;;;;;5031312;28;20035;-42
2022/09/08 06:34:19;;;;;;;10.75;5.95;;;17.00;99.90;;;;;;5024685;28;20037;-46
2022/09/08 06:36:47;;;;;;;12.00;6.22;;;17.00;99.90;;;;;;5025864;28;20096;-44
2022/09/08 06:39:23;;;;;;;13.73;5.90;;;17.00;99.90;;;;;;5025518;28;20492;-44
2022/09/08 06:42:10;;;;;;;10.52;5.78;;;17.00;99.90;;;;;;5023526;28;20076;-45
2022/09/08 06:44:39;;;;;;;14.40;5.30;;;17.00;99.90;;;;;;5019015;28;20108;-45
2022/09/08 06:47:13;;;;;;;10.30;6.20;;;17.00;99.90;;;;;;5027326;28;20482;-46
2022/09/08 06:49:39;;;;;;;10.43;5.38;;;17.00;99.90;;;;;;5028662;28;20555;-44
2022/09/08 06:52:23;;;;;;;16.38;4.55;;;17.00;99.90;;;;;;5026161;28;20029;-45
2022/09/08 06:55:18;;;;;;;9.32;4.45;;;17.00;99.90;;;;;;5019235;28;20084;-45
2022/09/08 06:57:53;;;;;;;7.15;4.18;;;17.00;99.90;;;;;;5015765;28;20642;-48
2022/09/08 07:00:24;;;;;;;14.85;5.05;;;17.00;99.90;;;;;;5023422;28;20521;-47
2022/09/08 07:03:07;;;;;;;11.38;4.90;;;17.00;99.90;;;;;;5028218;28;20381;-40
2022/09/08 07:06:05;;;;;;;14.63;6.30;;;16.90;99.90;;;;;;5016004;28;20022;-42
2022/09/08 07:08:59;;;;;;;10.52;5.07;;;17.00;99.90;;;;;;5020102;28;20017;-44
2022/09/08 07:11:25;;;;;;;15.30;5.93;;;16.90;99.90;;;;;;5014824;28;20422;-45
2022/09/08 07:14:26;;;;;;;11.25;6.20;;;17.00;99.90;;;;;;5024677;28;20110;-43
2022/09/08 07:17:05;;;;;;;12.73;5.45;;;17.00;99.90;;;;;;5021683;28;20037;-44
2022/09/08 07:19:50;;;;;;;11.93;5.80;;;17.00;99.90;;;;;;5020168;28;20029;-44
2022/09/08 07:22:40;;;;;;;11.35;4.90;;;17.00;99.90;;;;;;5018302;28;20033;-39
2022/09/08 07:25:16;;;;;;;6.88;4.65;;;16.90;99.90;;;;;;5023760;28;20402;-40
2022/09/08 07:27:43;;;;;;;7.22;4.63;;;16.90;99.90;;;;;;5025025;28;20497;-38
2022/09/08 07:30:15;;;;;;;7.40;4.60;;;17.00;99.90;;;;;;5023433;28;20060;-40
2022/09/08 07:32:45;;;;;;;10.23;3.88;;;16.90;99.90;;;;;;5016181;28;20045;-42
2022/09/08 07:35:27;;;;;;;6.00;4.10;;;16.90;99.90;;;;;;5018864;28;20175;-35
2022/09/08 07:37:56;;;;;;;7.20;3.75;;;16.90;99.90;;;;;;5020637;28;20041;-42
2022/09/08 07:40:44;;;;;;;6.55;4.28;;;17.00;99.90;;;;;;5035932;28;20527;-47
2022/09/08 07:43:11;;;;;;;9.38;4.25;;;17.00;99.90;;;;;;5025071;28;20534;-42
2022/09/08 07:45:56;;;;;;;12.70;4.78;;;17.00;99.90;;;;;;5027619;28;20025;-41
2022/09/08 07:48:38;;;;;;;7.60;4.60;;;17.00;99.90;;;;;;5029065;28;20025;-51
2022/09/08 07:51:19;;;;;;;13.77;6.10;;;17.10;99.90;;;;;;5026992;28;20083;-45
2022/09/08 07:54:10;;;;;;;14.38;6.55;;;17.10;99.90;;;;;;5026250;28;20567;-44
2022/09/08 07:56:48;;;;;;;15.80;5.60;;;17.10;99.90;;;;;;5031079;28;20143;-41
2022/09/08 07:59:41;;;;;;;16.60;6.20;;;17.20;99.90;;;;;;5031290;28;20128;-42
2022/09/08 08:02:10;;;;;;;14.95;6.45;;;17.10;99.90;;;;;;5023676;28;20038;-41
2022/09/08 08:04:41;;;;;;;13.52;7.15;;;17.20;99.90;;;;;;5032782;28;20424;-43
2022/09/08 08:07:13;;;;;;;12.07;7.10;;;17.20;99.90;;;;;;5030287;28;20497;-41
2022/09/08 08:09:59;;;;;;;12.57;6.80;;;17.20;99.90;;;;;;5027553;28;20474;-41
2022/09/08 08:12:43;;;;;;;11.73;5.40;;;17.30;99.90;;;;;;5031218;28;20021;-43
2022/09/08 08:15:19;;;;;;;15.60;8.07;;;17.30;99.90;;;;;;5026995;28;20025;-43
2022/09/08 08:17:56;;;;;;;11.35;6.05;;;17.40;99.90;;;;;;5022999;28;20422;-40
2022/09/08 08:20:47;;;;;;;18.35;9.50;;;17.40;99.90;;;;;;5028809;28;20632;-40
2022/09/08 08:23:46;;;;;;;18.58;10.75;;;17.50;99.90;;;;;;5035116;28;20030;-42
2022/09/08 08:26:19;;;;;;;13.65;9.02;;;17.60;99.90;;;;;;5024620;28;20021;-45
2022/09/08 08:28:46;;;;;;;25.80;11.93;;;17.60;99.90;;;;;;5031121;28;20096;-43
2022/09/08 08:31:11;;;;;;;22.60;11.52;;;17.60;99.90;;;;;;5027282;28;20040;-41
2022/09/08 08:33:52;;;;;;;21.65;10.43;;;17.60;99.90;;;;;;5028751;28;20104;-43
2022/09/08 08:36:24;;;;;;;19.73;11.38;;;17.70;99.90;;;;;;5028151;28;20064;-41
2022/09/08 08:38:55;;;;;;;16.98;10.15;;;17.70;99.90;;;;;;5029443;28;20024;-39
2022/09/08 08:41:40;;;;;;;19.52;10.70;;;17.70;99.90;;;;;;5016630;28;20025;-42
2022/09/08 08:44:30;;;;;;;19.55;10.77;;;17.90;99.90;;;;;;5046014;28;20535;-41
2022/09/08 08:47:07;;;;;;;16.30;10.50;;;18.00;99.90;;;;;;5038931;28;20029;-40
2022/09/08 08:50:03;;;;;;;17.92;10.25;;;18.10;99.90;;;;;;5030571;28;20099;-38
2022/09/08 08:52:44;;;;;;;11.30;7.78;;;18.30;99.90;;;;;;5013015;28;20034;-41
2022/09/08 08:55:26;;;;;;;13.27;7.43;;;18.30;99.90;;;;;;5007758;28;20037;-39
2022/09/08 08:58:04;;;;;;;17.70;7.75;;;18.40;99.90;;;;;;5020305;28;20526;-40
2022/09/08 09:01:17;;;;;;;14.68;7.70;;;18.40;99.90;;;;;;5022409;28;20497;-41
2022/09/08 09:03:49;;;;;;;10.20;6.70;;;18.50;99.90;;;;;;5014360;28;20032;-39
2022/09/08 09:06:52;;;;;;;9.18;6.63;;;18.70;99.90;;;;;;5023878;28;20092;-42
2022/09/08 09:09:23;;;;;;;13.68;6.88;;;18.80;99.90;;;;;;5023545;28;20037;-33
2022/09/08 09:12:03;;;;;;;12.32;7.05;;;18.90;99.90;;;;;;5019339;28;20388;-42
2022/09/08 09:15:01;;;;;;;8.95;6.45;;;19.00;99.90;;;;;;5030049;28;20117;-40
2022/09/08 09:17:31;;;;;;;11.13;7.30;;;19.10;99.90;;;;;;5027015;28;20435;-41
2022/09/08 09:20:15;;;;;;;13.63;9.63;;;19.40;99.90;;;;;;5024262;28;20021;-46
2022/09/08 09:22:55;;;;;;;12.63;8.35;;;19.60;99.90;;;;;;5028065;28;20084;-38
2022/09/08 09:25:32;;;;;;;10.18;7.82;;;19.50;99.90;;;;;;5036736;28;20063;-50
2022/09/08 09:28:35;;;;;;;12.90;9.10;;;19.40;99.90;;;;;;5024731;28;20021;-38
2022/09/08 09:31:20;;;;;;;16.77;9.82;;;19.40;99.90;;;;;;5020983;28;20119;-42
2022/09/08 09:34:07;;;;;;;11.98;9.90;;;19.50;99.90;;;;;;5013615;28;20088;-38
2022/09/08 09:37:07;;;;;;;12.60;9.45;;;19.50;99.90;;;;;;5021289;28;20076;-39
2022/09/08 09:39:57;;;;;;;11.35;9.27;;;19.50;99.90;;;;;;5016439;28;20077;-37
2022/09/08 09:42:58;;;;;;;15.70;9.75;;;19.50;99.90;;;;;;5023368;28;20495;-41
2022/09/08 09:45:50;;;;;;;13.88;9.35;;;19.60;99.90;;;;;;5022294;28;20029;-40
2022/09/08 09:48:28;;;;;;;10.23;8.00;;;19.60;99.90;;;;;;5012707;28;20022;-49
2022/09/08 09:51:26;;;;;;;10.02;7.57;;;19.50;99.90;;;;;;5011533;28;20029;-40
2022/09/08 09:54:00;;;;;;;12.00;7.93;;;19.30;99.90;;;;;;5015802;28;20026;-40
2022/09/08 09:56:51;;;;;;;11.23;8.07;;;19.10;99.90;;;;;;5030466;28;20029;-43
2022/09/08 09:59:54;;;;;;;16.20;9.45;;;18.90;99.90;;;;;;5029945;28;20049;-40
2022/09/08 10:02:52;;;;;;;13.82;9.02;;;18.70;99.90;;;;;;5017838;28;20029;-42
2022/09/08 10:05:47;;;;;;;21.48;10.25;;;18.50;99.90;;;;;;5028309;28;20394;-44
2022/09/08 10:08:38;;;;;;;14.48;9.35;;;18.60;99.90;;;;;;5018768;28;20071;-40
2022/09/08 10:11:44;;;;;;;10.65;7.45;;;18.90;99.90;;;;;;5027066;28;20032;-43
2022/09/08 10:14:29;;;;;;;;;;;19.30;99.90;;;;;;5020007;28;20042;-41
2022/09/08 10:17:33;;;;;;;12.00;5.93;;;19.40;99.90;;;;;;5025645;28;19920;-48
2022/09/08 10:20:36;;;;;;;7.93;5.32;;;19.60;99.90;;;;;;5024146;28;20508;-42
2022/09/08 10:23:11;;;;;;;7.28;4.10;;;20.10;99.90;;;;;;5017755;28;20446;-39
2022/09/08 10:26:01;;;;;;;5.05;3.33;;;20.50;99.90;;;;;;5021723;28;20025;-42
2022/09/08 10:28:32;;;;;;;5.90;2.92;;;20.80;99.90;;;;;;5030394;28;20037;-42
2022/09/08 10:31:22;;;;;;;9.15;2.42;;;21.00;99.90;;;;;;5023460;28;20486;-43
2022/09/08 10:34:19;;;;;;;10.30;2.92;;;21.20;99.90;;;;;;5022044;28;20527;-40
2022/09/08 10:36:57;;;;;;;13.68;2.30;;;21.40;99.90;;;;;;5017677;28;20045;-48
2022/09/08 10:39:34;;;;;;;7.68;2.92;;;21.50;99.90;;;;;;5020253;28;20442;-42
2022/09/08 10:42:15;;;;;;;5.95;2.47;;;21.30;99.90;;;;;;5029627;28;20030;-40
2022/09/08 10:44:43;;;;;;;3.72;2.67;;;21.10;99.90;;;;;;5027009;28;20575;-40
2022/09/08 10:47:29;;;;;;;7.90;3.50;;;21.10;99.90;;;;;;5028042;28;20043;-42
2022/09/08 10:50:19;;;;;;;4.80;3.30;;;21.20;99.90;;;;;;5025707;28;20533;-38
2022/09/08 10:53:22;;;;;;;6.10;2.60;;;21.40;99.90;;;;;;5028187;28;20501;-34
2022/09/08 10:55:59;;;;;;;4.18;2.90;;;21.60;99.90;;;;;;5022114;28;20381;-35
2022/09/08 10:58:59;;;;;;;7.30;2.87;;;21.70;99.90;;;;;;5020618;28;20064;-35
2022/09/08 11:01:24;;;;;;;4.20;1.98;;;21.80;99.90;;;;;;5027204;28;20032;-34
2022/09/08 11:04:05;;;;;;;7.65;2.30;;;21.80;99.90;;;;;;5025211;28;20025;-34
2022/09/08 11:07:14;;;;;;;3.50;1.92;;;21.60;99.90;;;;;;5017730;28;20030;-36
2022/09/08 11:10:01;;;;;;;3.78;2.72;;;21.40;99.90;;;;;;5020404;28;20032;-36
2022/09/08 11:12:51;;;;;;;7.82;2.17;;;21.00;99.90;;;;;;5017615;28;20030;-42
2022/09/08 11:15:52;;;;;;;9.00;3.35;;;20.80;99.90;;;;;;5017661;28;20029;-36
2022/09/08 11:18:46;;;;;;;5.65;2.67;;;20.80;99.90;;;;;;5017300;28;20505;-37
2022/09/08 11:21:24;;;;;;;3.45;2.63;;;20.80;99.90;;;;;;5013292;28;20033;-36
2022/09/08 11:24:14;;;;;;;3.83;3.00;;;21.20;99.90;;;;;;5018197;28;20112;-37
2022/09/08 11:26:48;;;;;;;7.90;3.90;;;21.60;99.90;;;;;;5020920;28;20041;-46
2022/09/08 11:29:16;;;;;;;5.95;2.88;;;22.10;99.90;;;;;;5024409;28;20501;-41
2022/09/08 11:31:44;;;;;;;;;;;22.40;99.90;;;;;;5019228;28;20099;-35
2022/09/08 11:34:30;;;;;;;4.68;2.67;;;22.60;99.90;;;;;;5019445;28;19912;-37
2022/09/08 11:37:08;;;;;;;4.03;2.40;;;22.70;99.90;;;;;;5023933;28;20034;-35
2022/09/08 11:39:39;;;;;;;;;;;22.70;99.90;;;;;;5021905;28;20478;-45
2022/09/08 11:42:20;;;;;;;4.18;2.60;;;22.90;99.90;;;;;;5013273;28;19909;-38
2022/09/08 11:45:01;;;;;;;7.95;2.47;;;23.20;99.90;;;;;;5016742;28;20033;-37
2022/09/08 11:47:45;;;;;;;5.20;2.92;;;23.10;99.90;;;;;;5024001;28;20025;-36
2022/09/08 11:50:35;;;;;;;7.07;3.20;;;23.20;99.90;;;;;;5019845;28;20512;-34
2022/09/08 11:53:31;;;;;;;6.63;1.92;;;23.20;99.90;;;;;;5022367;28;20057;-36
2022/09/08 11:56:22;;;;;;;7.25;3.17;;;23.20;99.90;;;;;;5018383;28;20618;-36
2022/09/08 11:59:36;;;;;;;4.10;2.42;;;23.40;99.90;;;;;;5024573;28;20478;-34
2022/09/08 12:02:19;;;;;;;4.15;2.25;;;23.50;99.90;;;;;;5010455;28;20568;-32
2022/09/08 12:05:32;;;;;;;8.07;2.20;;;23.70;99.90;;;;;;5025503;28;20021;-39
2022/09/08 12:08:24;;;;;;;5.90;2.45;;;23.80;99.90;;;;;;5018847;28;20537;-42
2022/09/08 12:11:05;;;;;;;2.70;1.90;;;23.90;99.90;;;;;;5028137;28;20101;-35
2022/09/08 12:13:51;;;;;;;6.50;1.80;;;24.00;99.90;;;;;;5031561;28;20423;-34
2022/09/08 12:17:04;;;;;;;7.55;1.70;;;24.00;99.90;;;;;;5021857;28;20073;-39
2022/09/08 12:19:35;;;;;;;5.05;1.88;;;23.90;99.90;;;;;;5021029;28;20493;-39
2022/09/08 12:22:22;;;;;;;8.65;1.75;;;24.00;99.90;;;;;;5028955;28;20017;-38
2022/09/08 12:25:24;;;;;;;4.57;0.98;;;24.00;99.90;;;;;;5029240;28;20474;-38
2022/09/08 12:28:10;;;;;;;5.60;1.35;;;24.00;99.90;;;;;;5022375;28;20039;-40
2022/09/08 12:31:15;;;;;;;10.02;1.13;;;23.90;99.90;;;;;;5030248;28;20420;-41
2022/09/08 12:34:19;;;;;;;4.07;0.95;;;23.80;99.90;;;;;;5006821;28;20465;-36
2022/09/08 12:36:55;;;;;;;4.22;1.58;;;23.80;99.90;;;;;;5028456;28;20643;-33
2022/09/08 12:40:00;;;;;;;6.95;1.20;;;23.90;99.90;;;;;;5027345;28;20436;-36
2022/09/08 12:42:46;;;;;;;4.68;1.60;;;24.10;99.90;;;;;;5023448;28;20037;-38
2022/09/08 12:45:13;;;;;;;9.73;1.57;;;24.00;99.90;;;;;;5028322;28;20044;-36
2022/09/08 12:48:11;;;;;;;4.28;1.98;;;23.80;99.90;;;;;;5030370;28;20705;-38
2022/09/08 12:50:42;;;;;;;4.00;1.02;;;23.90;99.90;;;;;;5033775;28;20029;-35
2022/09/08 12:53:29;;;;;;;3.47;1.15;;;23.70;99.90;;;;;;5027045;28;20486;-32
2022/09/08 12:56:31;;;;;;;5.30;1.45;;;23.60;99.90;;;;;;5014628;28;20427;-37
2022/09/08 12:59:02;;;;;;;3.33;1.02;;;23.70;99.90;;;;;;5017137;28;20078;-33
2022/09/08 13:01:40;;;;;;;3.30;1.20;;;24.00;99.90;;;;;;5035590;28;20033;-31
2022/09/08 13:04:37;;;;;;;2.90;0.90;;;24.20;99.90;;;;;;5030005;28;20017;-34
2022/09/08 13:07:28;;;;;;;4.97;1.30;;;24.30;99.90;;;;;;5030504;28;20021;-38
2022/09/08 13:10:13;;;;;;;10.70;1.50;;;24.40;99.90;;;;;;5023599;28;20022;-38
2022/09/08 13:13:14;;;;;;;1.38;1.02;;;24.60;99.90;;;;;;5031556;28;20033;-42
2022/09/08 13:15:50;;;;;;;4.45;1.20;;;24.70;99.90;;;;;;5030270;28;20469;-39
2022/09/08 13:18:47;;;;;;;5.63;1.20;;;24.60;99.90;;;;;;5037631;28;20030;-34
2022/09/08 13:21:17;;;;;;;4.90;1.83;;;24.60;99.90;;;;;;5021406;28;20071;-37
2022/09/08 13:23:58;;;;;;;1.63;1.08;;;24.60;99.90;;;;;;5027684;28;20378;-34
2022/09/08 13:26:39;;;;;;;5.57;1.38;;;24.60;99.90;;;;;;5028788;28;20486;-35
2022/09/08 13:29:24;;;;;;;5.60;1.58;;;24.40;99.90;;;;;;5019687;28;20081;-32
2022/09/08 13:32:35;;;;;;;5.90;1.05;;;24.10;99.90;;;;;;5026402;28;20029;-33
2022/09/08 13:35:22;;;;;;;2.63;1.10;;;24.10;99.90;;;;;;5012969;28;20045;-37
2022/09/08 13:37:55;;;;;;;;;;;23.80;99.90;;;;;;5027847;28;20044;-33